sensor_id;sensor_type;location;lat;lon;timestamp;P1;durP1;ratioP1;P2;durP2;ratioP2
39256;SDS011;24958;48.066;11.038;2022-09-13T00:00:49;3.90;;;3.27;;
39256;SDS011;24958;48.066;11.038;2022-09-13T00:03:15;3.93;;;3.53;;
39256;SDS011;24958;48.066;11.038;2022-09-13T00:05:41;3.53;;;3.30;;
39256;SDS011;24958;48.066;11.038;2022-09-13T00:08:07;3.43;;;3.13;;
39256;SDS011;24958;48.066;11.038;2022-09-13T00:10:34;5.57;;;3.10;;
39256;SDS011;24958;48.066;11.038;2022-09-13T00:13:01;3.73;;;3.40;;
39256;SDS011;24958;48.066;11.038;2022-09-13T00:15:27;3.40;;;3.07;;
39256;SDS011;24958;48.066;11.038;2022-09-13T00:17:53;3.37;;;3.07;;
39256;SDS011;24958;48.066;11.038;2022-09-13T00:20:19;3.70;;;3.40;;
39256;SDS011;24958;48.066;11.038;2022-09-13T00:22:45;3.63;;;3.33;;
39256;SDS011;24958;48.066;11.038;2022-09-13T00:25:11;3.87;;;3.57;;
39256;SDS011;24958;48.066;11.038;2022-09-13T00:27:37;3.30;;;3.00;;
39256;SDS011;24958;48.066;11.038;2022-09-13T00:30:04;3.20;;;3.00;;
39256;SDS011;24958;48.066;11.038;2022-09-13T00:32:30;3.33;;;3.13;;
39256;SDS011;24958;48.066;11.038;2022-09-13T00:34:56;3.70;;;3.40;;
39256;SDS011;24958;48.066;11.038;2022-09-13T00:37:22;3.67;;;3.30;;
39256;SDS011;24958;48.066;11.038;2022-09-13T00:39:48;3.60;;;3.07;;
39256;SDS011;24958;48.066;11.038;2022-09-13T00:42:14;3.33;;;3.00;;
39256;SDS011;24958;48.066;11.038;2022-09-13T00:49:58;3.40;;;3.10;;
39256;SDS011;24958;48.066;11.038;2022-09-13T00:52:26;4.40;;;3.20;;
39256;SDS011;24958;48.066;11.038;2022-09-13T00:55:00;3.53;;;3.23;;
39256;SDS011;24958;48.066;11.038;2022-09-13T00:57:27;3.90;;;3.23;;
39256;SDS011;24958;48.066;11.038;2022-09-13T01:00:26;3.67;;;3.10;;
39256;SDS011;24958;48.066;11.038;2022-09-13T01:02:48;3.33;;;2.80;;
39256;SDS011;24958;48.066;11.038;2022-09-13T01:05:16;3.17;;;2.87;;
39256;SDS011;24958;48.066;11.038;2022-09-13T01:07:43;3.13;;;2.83;;
39256;SDS011;24958;48.066;11.038;2022-09-13T01:10:10;3.23;;;3.03;;
39256;SDS011;24958;48.066;11.038;2022-09-13T01:15:21;2.97;;;2.70;;
39256;SDS011;24958;48.066;11.038;2022-09-13T01:17:48;2.90;;;2.70;;
39256;SDS011;24958;48.066;11.038;2022-09-13T01:20:15;2.87;;;2.67;;
39256;SDS011;24958;48.066;11.038;2022-09-13T01:27:59;2.70;;;2.50;;
39256;SDS011;24958;48.066;11.038;2022-09-13T01:30:28;3.10;;;2.80;;
39256;SDS011;24958;48.066;11.038;2022-09-13T01:42:54;2.80;;;2.60;;
39256;SDS011;24958;48.066;11.038;2022-09-13T01:48:02;2.60;;;2.40;;
39256;SDS011;24958;48.066;11.038;2022-09-13T02:00:27;3.00;;;2.80;;
39256;SDS011;24958;48.066;11.038;2022-09-13T02:02:55;2.90;;;2.70;;
39256;SDS011;24958;48.066;11.038;2022-09-13T02:05:27;2.80;;;2.60;;
39256;SDS011;24958;48.066;11.038;2022-09-13T02:08:09;2.57;;;2.20;;
39256;SDS011;24958;48.066;11.038;2022-09-13T02:10:38;3.00;;;2.70;;
39256;SDS011;24958;48.066;11.038;2022-09-13T02:13:07;3.67;;;2.70;;
39256;SDS011;24958;48.066;11.038;2022-09-13T02:15:55;2.90;;;2.70;;
39256;SDS011;24958;48.066;11.038;2022-09-13T02:18:46;2.87;;;2.67;;
39256;SDS011;24958;48.066;11.038;2022-09-13T02:21:11;3.67;;;3.00;;
39256;SDS011;24958;48.066;11.038;2022-09-13T02:23:40;3.60;;;3.07;;
39256;SDS011;24958;48.066;11.038;2022-09-13T02:26:08;3.73;;;2.80;;
39256;SDS011;24958;48.066;11.038;2022-09-13T02:28:35;2.93;;;2.73;;
39256;SDS011;24958;48.066;11.038;2022-09-13T02:31:03;2.93;;;2.67;;
39256;SDS011;24958;48.066;11.038;2022-09-13T02:33:30;3.30;;;3.00;;
39256;SDS011;24958;48.066;11.038;2022-09-13T02:35:59;2.77;;;2.57;;
39256;SDS011;24958;48.066;11.038;2022-09-13T02:38:28;2.87;;;2.67;;
39256;SDS011;24958;48.066;11.038;2022-09-13T02:40:59;3.17;;;2.87;;
39256;SDS011;24958;48.066;11.038;2022-09-13T02:43:28;2.93;;;2.73;;
39256;SDS011;24958;48.066;11.038;2022-09-13T02:46:58;3.10;;;2.77;;
39256;SDS011;24958;48.066;11.038;2022-09-13T02:49:04;2.67;;;2.47;;
39256;SDS011;24958;48.066;11.038;2022-09-13T02:51:39;2.80;;;2.60;;
39256;SDS011;24958;48.066;11.038;2022-09-13T02:54:14;3.20;;;2.70;;
39256;SDS011;24958;48.066;11.038;2022-09-13T02:59:20;3.00;;;2.80;;
39256;SDS011;24958;48.066;11.038;2022-09-13T03:02:10;3.00;;;2.40;;
39256;SDS011;24958;48.066;11.038;2022-09-13T03:04:34;3.90;;;2.40;;
39256;SDS011;24958;48.066;11.038;2022-09-13T03:07:00;3.20;;;2.90;;
39256;SDS011;24958;48.066;11.038;2022-09-13T03:09:30;2.77;;;2.57;;
39256;SDS011;24958;48.066;11.038;2022-09-13T03:17:14;2.83;;;2.30;;
39256;SDS011;24958;48.066;11.038;2022-09-13T03:22:26;2.50;;;2.30;;
39256;SDS011;24958;48.066;11.038;2022-09-13T03:27:36;3.00;;;2.60;;
39256;SDS011;24958;48.066;11.038;2022-09-13T03:30:07;2.60;;;2.40;;
39256;SDS011;24958;48.066;11.038;2022-09-13T03:32:40;3.13;;;2.70;;
39256;SDS011;24958;48.066;11.038;2022-09-13T03:37:38;2.63;;;2.43;;
39256;SDS011;24958;48.066;11.038;2022-09-13T03:40:09;2.90;;;2.70;;
39256;SDS011;24958;48.066;11.038;2022-09-13T03:42:57;4.07;;;2.60;;
39256;SDS011;24958;48.066;11.038;2022-09-13T03:45:27;2.53;;;2.33;;
39256;SDS011;24958;48.066;11.038;2022-09-13T03:47:54;3.17;;;2.87;;
39256;SDS011;24958;48.066;11.038;2022-09-13T03:50:21;2.77;;;2.57;;
39256;SDS011;24958;48.066;11.038;2022-09-13T03:52:49;2.63;;;2.43;;
39256;SDS011;24958;48.066;11.038;2022-09-13T03:55:19;2.53;;;2.33;;
39256;SDS011;24958;48.066;11.038;2022-09-13T03:57:45;2.63;;;2.30;;
39256;SDS011;24958;48.066;11.038;2022-09-13T04:00:12;2.70;;;2.50;;
39256;SDS011;24958;48.066;11.038;2022-09-13T04:02:38;2.80;;;2.40;;
39256;SDS011;24958;48.066;11.038;2022-09-13T04:05:05;2.70;;;2.50;;
39256;SDS011;24958;48.066;11.038;2022-09-13T04:07:31;2.37;;;2.23;;
39256;SDS011;24958;48.066;11.038;2022-09-13T04:09:57;2.37;;;2.17;;
39256;SDS011;24958;48.066;11.038;2022-09-13T04:12:23;2.80;;;2.00;;
39256;SDS011;24958;48.066;11.038;2022-09-13T04:14:49;2.37;;;2.17;;
39256;SDS011;24958;48.066;11.038;2022-09-13T04:17:16;1.93;;;1.83;;
39256;SDS011;24958;48.066;11.038;2022-09-13T04:19:42;3.63;;;2.30;;
39256;SDS011;24958;48.066;11.038;2022-09-13T04:22:09;3.73;;;2.30;;
39256;SDS011;24958;48.066;11.038;2022-09-13T04:24:35;2.33;;;2.10;;
39256;SDS011;24958;48.066;11.038;2022-09-13T04:27:02;2.33;;;2.13;;
39256;SDS011;24958;48.066;11.038;2022-09-13T04:29:29;2.77;;;2.33;;
39256;SDS011;24958;48.066;11.038;2022-09-13T04:31:55;2.40;;;2.20;;
39256;SDS011;24958;48.066;11.038;2022-09-13T04:34:22;2.50;;;2.30;;
39256;SDS011;24958;48.066;11.038;2022-09-13T04:36:48;2.70;;;2.40;;
39256;SDS011;24958;48.066;11.038;2022-09-13T04:39:15;2.77;;;2.30;;
39256;SDS011;24958;48.066;11.038;2022-09-13T04:41:41;3.50;;;2.50;;
39256;SDS011;24958;48.066;11.038;2022-09-13T04:44:08;2.40;;;2.23;;
39256;SDS011;24958;48.066;11.038;2022-09-13T04:46:34;2.57;;;2.27;;
39256;SDS011;24958;48.066;11.038;2022-09-13T04:49:00;2.50;;;2.30;;
39256;SDS011;24958;48.066;11.038;2022-09-13T04:51:27;3.20;;;2.70;;
39256;SDS011;24958;48.066;11.038;2022-09-13T04:53:53;2.53;;;2.33;;
39256;SDS011;24958;48.066;11.038;2022-09-13T04:56:20;2.50;;;2.30;;
39256;SDS011;24958;48.066;11.038;2022-09-13T04:58:47;2.80;;;2.60;;
39256;SDS011;24958;48.066;11.038;2022-09-13T05:01:13;2.30;;;2.20;;
39256;SDS011;24958;48.066;11.038;2022-09-13T05:03:39;2.50;;;2.30;;
39256;SDS011;24958;48.066;11.038;2022-09-13T05:06:05;3.77;;;2.40;;
39256;SDS011;24958;48.066;11.038;2022-09-13T05:08:32;2.77;;;2.30;;
39256;SDS011;24958;48.066;11.038;2022-09-13T05:10:59;2.43;;;2.33;;
39256;SDS011;24958;48.066;11.038;2022-09-13T05:13:25;2.57;;;2.37;;
39256;SDS011;24958;48.066;11.038;2022-09-13T05:15:54;2.40;;;2.20;;
39256;SDS011;24958;48.066;11.038;2022-09-13T05:18:21;2.60;;;2.40;;
39256;SDS011;24958;48.066;11.038;2022-09-13T05:20:48;2.77;;;2.17;;
39256;SDS011;24958;48.066;11.038;2022-09-13T05:23:14;2.40;;;2.20;;
39256;SDS011;24958;48.066;11.038;2022-09-13T05:25:40;5.20;;;2.70;;
39256;SDS011;24958;48.066;11.038;2022-09-13T05:28:06;2.40;;;2.20;;
39256;SDS011;24958;48.066;11.038;2022-09-13T05:30:32;2.53;;;2.30;;
39256;SDS011;24958;48.066;11.038;2022-09-13T05:32:58;2.20;;;2.10;;
39256;SDS011;24958;48.066;11.038;2022-09-13T05:35:24;3.93;;;2.40;;
39256;SDS011;24958;48.066;11.038;2022-09-13T05:37:50;2.60;;;2.37;;
39256;SDS011;24958;48.066;11.038;2022-09-13T05:40:16;2.50;;;2.30;;
39256;SDS011;24958;48.066;11.038;2022-09-13T05:42:42;2.30;;;2.07;;
39256;SDS011;24958;48.066;11.038;2022-09-13T05:45:08;2.50;;;2.30;;
39256;SDS011;24958;48.066;11.038;2022-09-13T05:47:34;2.20;;;2.10;;
39256;SDS011;24958;48.066;11.038;2022-09-13T05:50:00;2.33;;;2.13;;
39256;SDS011;24958;48.066;11.038;2022-09-13T05:52:26;3.00;;;2.70;;
39256;SDS011;24958;48.066;11.038;2022-09-13T05:54:52;3.10;;;2.80;;
39256;SDS011;24958;48.066;11.038;2022-09-13T05:57:18;3.27;;;2.93;;
39256;SDS011;24958;48.066;11.038;2022-09-13T05:59:44;2.60;;;2.40;;
39256;SDS011;24958;48.066;11.038;2022-09-13T06:02:11;3.13;;;2.47;;
39256;SDS011;24958;48.066;11.038;2022-09-13T06:04:37;2.47;;;2.30;;
39256;SDS011;24958;48.066;11.038;2022-09-13T06:07:03;3.03;;;2.73;;
39256;SDS011;24958;48.066;11.038;2022-09-13T06:09:29;2.80;;;2.60;;
39256;SDS011;24958;48.066;11.038;2022-09-13T06:11:55;2.57;;;2.37;;
39256;SDS011;24958;48.066;11.038;2022-09-13T06:14:21;2.77;;;2.57;;
39256;SDS011;24958;48.066;11.038;2022-09-13T06:16:47;2.80;;;2.60;;
39256;SDS011;24958;48.066;11.038;2022-09-13T06:19:13;3.10;;;2.90;;
39256;SDS011;24958;48.066;11.038;2022-09-13T06:21:39;2.87;;;2.67;;
39256;SDS011;24958;48.066;11.038;2022-09-13T06:24:06;2.90;;;2.70;;
39256;SDS011;24958;48.066;11.038;2022-09-13T06:26:32;2.97;;;2.77;;
39256;SDS011;24958;48.066;11.038;2022-09-13T06:28:58;2.90;;;2.70;;
39256;SDS011;24958;48.066;11.038;2022-09-13T06:31:25;3.30;;;3.00;;
39256;SDS011;24958;48.066;11.038;2022-09-13T06:33:56;3.00;;;2.80;;
39256;SDS011;24958;48.066;11.038;2022-09-13T06:36:22;3.95;;;2.67;;
39256;SDS011;24958;48.066;11.038;2022-09-13T06:38:48;2.53;;;2.42;;
39256;SDS011;24958;48.066;11.038;2022-09-13T06:41:15;2.53;;;2.33;;
39256;SDS011;24958;48.066;11.038;2022-09-13T06:43:45;3.90;;;2.40;;
39256;SDS011;24958;48.066;11.038;2022-09-13T06:46:13;4.15;;;2.90;;
39256;SDS011;24958;48.066;11.038;2022-09-13T06:48:40;2.72;;;2.40;;
39256;SDS011;24958;48.066;11.038;2022-09-13T06:51:07;3.03;;;2.80;;
39256;SDS011;24958;48.066;11.038;2022-09-13T06:53:34;2.47;;;2.30;;
39256;SDS011;24958;48.066;11.038;2022-09-13T06:56:04;2.30;;;2.20;;
39256;SDS011;24958;48.066;11.038;2022-09-13T06:58:31;3.40;;;2.67;;
39256;SDS011;24958;48.066;11.038;2022-09-13T07:01:07;2.70;;;2.50;;
39256;SDS011;24958;48.066;11.038;2022-09-13T07:03:37;4.47;;;2.50;;
39256;SDS011;24958;48.066;11.038;2022-09-13T07:06:07;2.80;;;2.60;;
39256;SDS011;24958;48.066;11.038;2022-09-13T07:08:33;4.35;;;2.28;;
39256;SDS011;24958;48.066;11.038;2022-09-13T07:10:59;2.90;;;2.60;;
39256;SDS011;24958;48.066;11.038;2022-09-13T07:13:25;3.20;;;2.40;;
39256;SDS011;24958;48.066;11.038;2022-09-13T07:15:51;3.00;;;2.80;;
39256;SDS011;24958;48.066;11.038;2022-09-13T07:18:17;2.75;;;2.55;;
39256;SDS011;24958;48.066;11.038;2022-09-13T07:20:43;3.33;;;2.30;;
39256;SDS011;24958;48.066;11.038;2022-09-13T07:23:09;3.63;;;2.15;;
39256;SDS011;24958;48.066;11.038;2022-09-13T07:25:34;2.40;;;2.20;;
39256;SDS011;24958;48.066;11.038;2022-09-13T07:28:00;2.13;;;1.55;;
39256;SDS011;24958;48.066;11.038;2022-09-13T07:30:26;3.05;;;1.90;;
39256;SDS011;24958;48.066;11.038;2022-09-13T07:32:52;2.45;;;1.88;;
39256;SDS011;24958;48.066;11.038;2022-09-13T07:35:18;1.90;;;1.70;;
39256;SDS011;24958;48.066;11.038;2022-09-13T07:37:45;1.88;;;1.67;;
39256;SDS011;24958;48.066;11.038;2022-09-13T07:40:11;2.67;;;1.60;;
39256;SDS011;24958;48.066;11.038;2022-09-13T07:42:37;2.45;;;1.40;;
39256;SDS011;24958;48.066;11.038;2022-09-13T07:45:04;2.10;;;1.70;;
39256;SDS011;24958;48.066;11.038;2022-09-13T07:47:33;4.53;;;1.67;;
39256;SDS011;24958;48.066;11.038;2022-09-13T07:49:59;2.05;;;1.60;;
39256;SDS011;24958;48.066;11.038;2022-09-13T07:52:27;3.28;;;1.98;;
39256;SDS011;24958;48.066;11.038;2022-09-13T07:54:53;2.42;;;1.50;;
39256;SDS011;24958;48.066;11.038;2022-09-13T07:57:19;1.92;;;1.58;;
39256;SDS011;24958;48.066;11.038;2022-09-13T07:59:45;3.28;;;1.98;;
39256;SDS011;24958;48.066;11.038;2022-09-13T08:02:11;1.70;;;1.48;;
39256;SDS011;24958;48.066;11.038;2022-09-13T08:04:37;2.90;;;1.60;;
39256;SDS011;24958;48.066;11.038;2022-09-13T08:07:03;1.50;;;1.40;;
39256;SDS011;24958;48.066;11.038;2022-09-13T08:09:29;1.77;;;1.40;;
39256;SDS011;24958;48.066;11.038;2022-09-13T08:11:55;1.65;;;1.20;;
39256;SDS011;24958;48.066;11.038;2022-09-13T08:14:21;2.00;;;1.23;;
39256;SDS011;24958;48.066;11.038;2022-09-13T08:16:48;1.40;;;1.30;;
39256;SDS011;24958;48.066;11.038;2022-09-13T08:19:15;1.30;;;1.20;;
39256;SDS011;24958;48.066;11.038;2022-09-13T08:21:41;1.48;;;1.38;;
39256;SDS011;24958;48.066;11.038;2022-09-13T08:24:17;1.85;;;1.40;;
39256;SDS011;24958;48.066;11.038;2022-09-13T08:26:43;1.25;;;1.15;;
39256;SDS011;24958;48.066;11.038;2022-09-13T08:29:09;2.35;;;1.30;;
39256;SDS011;24958;48.066;11.038;2022-09-13T08:31:36;2.15;;;1.20;;
39256;SDS011;24958;48.066;11.038;2022-09-13T08:34:02;1.88;;;1.40;;
39256;SDS011;24958;48.066;11.038;2022-09-13T08:36:28;1.73;;;1.30;;
39256;SDS011;24958;48.066;11.038;2022-09-13T08:38:56;2.08;;;1.40;;
39256;SDS011;24958;48.066;11.038;2022-09-13T08:41:26;1.20;;;1.10;;
39256;SDS011;24958;48.066;11.038;2022-09-13T08:43:57;2.85;;;1.10;;
39256;SDS011;24958;48.066;11.038;2022-09-13T08:48:57;1.45;;;1.02;;
39256;SDS011;24958;48.066;11.038;2022-09-13T08:53:53;2.67;;;1.23;;
39256;SDS011;24958;48.066;11.038;2022-09-13T08:59:08;2.92;;;1.25;;
39256;SDS011;24958;48.066;11.038;2022-09-13T09:07:19;2.58;;;1.48;;
39256;SDS011;24958;48.066;11.038;2022-09-13T09:09:48;2.05;;;1.45;;
39256;SDS011;24958;48.066;11.038;2022-09-13T09:12:18;4.45;;;3.85;;
39256;SDS011;24958;48.066;11.038;2022-09-13T09:14:46;1.70;;;1.60;;
39256;SDS011;24958;48.066;11.038;2022-09-13T09:17:20;1.85;;;1.73;;
39256;SDS011;24958;48.066;11.038;2022-09-13T09:19:48;2.88;;;1.50;;
39256;SDS011;24958;48.066;11.038;2022-09-13T09:22:18;2.63;;;1.40;;
39256;SDS011;24958;48.066;11.038;2022-09-13T09:24:46;2.08;;;1.30;;
39256;SDS011;24958;48.066;11.038;2022-09-13T09:27:14;2.00;;;1.17;;
39256;SDS011;24958;48.066;11.038;2022-09-13T09:29:40;3.45;;;1.42;;
39256;SDS011;24958;48.066;11.038;2022-09-13T09:32:33;2.40;;;1.30;;
39256;SDS011;24958;48.066;11.038;2022-09-13T09:37:39;2.50;;;1.27;;
39256;SDS011;24958;48.066;11.038;2022-09-13T09:40:11;2.22;;;1.45;;
39256;SDS011;24958;48.066;11.038;2022-09-13T09:42:41;2.45;;;1.80;;
39256;SDS011;24958;48.066;11.038;2022-09-13T09:47:49;1.55;;;1.40;;
39256;SDS011;24958;48.066;11.038;2022-09-13T09:52:43;1.58;;;1.48;;
39256;SDS011;24958;48.066;11.038;2022-09-13T09:55:30;1.92;;;1.50;;
39256;SDS011;24958;48.066;11.038;2022-09-13T09:58:03;2.28;;;1.40;;
39256;SDS011;24958;48.066;11.038;2022-09-13T10:00:36;1.85;;;1.48;;
39256;SDS011;24958;48.066;11.038;2022-09-13T10:03:07;2.80;;;1.50;;
39256;SDS011;24958;48.066;11.038;2022-09-13T10:05:33;3.60;;;1.50;;
39256;SDS011;24958;48.066;11.038;2022-09-13T10:08:23;1.50;;;1.35;;
39256;SDS011;24958;48.066;11.038;2022-09-13T10:10:51;2.83;;;1.83;;
39256;SDS011;24958;48.066;11.038;2022-09-13T10:13:19;2.08;;;1.50;;
39256;SDS011;24958;48.066;11.038;2022-09-13T10:15:52;2.42;;;1.50;;
39256;SDS011;24958;48.066;11.038;2022-09-13T10:18:19;1.50;;;1.40;;
39256;SDS011;24958;48.066;11.038;2022-09-13T10:21:05;1.40;;;1.30;;
39256;SDS011;24958;48.066;11.038;2022-09-13T10:23:32;2.30;;;1.30;;
39256;SDS011;24958;48.066;11.038;2022-09-13T10:26:03;2.08;;;1.58;;
39256;SDS011;24958;48.066;11.038;2022-09-13T10:28:31;1.50;;;1.40;;
39256;SDS011;24958;48.066;11.038;2022-09-13T10:31:08;1.63;;;1.52;;
39256;SDS011;24958;48.066;11.038;2022-09-13T10:33:39;1.80;;;1.70;;
39256;SDS011;24958;48.066;11.038;2022-09-13T10:36:10;1.50;;;1.40;;
39256;SDS011;24958;48.066;11.038;2022-09-13T10:38:38;1.50;;;1.40;;
39256;SDS011;24958;48.066;11.038;2022-09-13T10:41:06;1.73;;;1.63;;
39256;SDS011;24958;48.066;11.038;2022-09-13T10:43:33;1.30;;;1.20;;
39256;SDS011;24958;48.066;11.038;2022-09-13T10:46:01;2.30;;;1.40;;
39256;SDS011;24958;48.066;11.038;2022-09-13T10:48:28;1.88;;;1.38;;
39256;SDS011;24958;48.066;11.038;2022-09-13T10:53:33;1.88;;;1.38;;
39256;SDS011;24958;48.066;11.038;2022-09-13T10:56:00;1.50;;;1.40;;
39256;SDS011;24958;48.066;11.038;2022-09-13T10:58:26;3.20;;;1.50;;
39256;SDS011;24958;48.066;11.038;2022-09-13T11:14:03;1.77;;;1.48;;
39256;SDS011;24958;48.066;11.038;2022-09-13T11:24:42;2.25;;;1.00;;
39256;SDS011;24958;48.066;11.038;2022-09-13T11:32:18;2.13;;;1.20;;
39256;SDS011;24958;48.066;11.038;2022-09-13T11:45:22;1.27;;;1.02;;
39256;SDS011;24958;48.066;11.038;2022-09-13T11:50:21;2.08;;;1.50;;
39256;SDS011;24958;48.066;11.038;2022-09-13T11:52:57;1.15;;;1.05;;
39256;SDS011;24958;48.066;11.038;2022-09-13T11:58:03;2.55;;;1.40;;
39256;SDS011;24958;48.066;11.038;2022-09-13T12:00:43;1.20;;;1.10;;
39256;SDS011;24958;48.066;11.038;2022-09-13T12:03:14;1.70;;;1.10;;
39256;SDS011;24958;48.066;11.038;2022-09-13T12:05:46;1.95;;;1.33;;
39256;SDS011;24958;48.066;11.038;2022-09-13T12:13:17;1.27;;;1.10;;
39256;SDS011;24958;48.066;11.038;2022-09-13T12:15:45;1.58;;;1.30;;
39256;SDS011;24958;48.066;11.038;2022-09-13T12:18:17;2.08;;;1.13;;
39256;SDS011;24958;48.066;11.038;2022-09-13T12:23:12;1.30;;;1.20;;
39256;SDS011;24958;48.066;11.038;2022-09-13T12:25:42;1.15;;;1.05;;
39256;SDS011;24958;48.066;11.038;2022-09-13T12:28:31;2.42;;;1.30;;
39256;SDS011;24958;48.066;11.038;2022-09-13T12:31:13;1.60;;;1.10;;
39256;SDS011;24958;48.066;11.038;2022-09-13T12:33:41;1.00;;;1.00;;
39256;SDS011;24958;48.066;11.038;2022-09-13T12:36:50;1.55;;;1.20;;
39256;SDS011;24958;48.066;11.038;2022-09-13T13:02:36;1.02;;;0.93;;
39256;SDS011;24958;48.066;11.038;2022-09-13T13:05:25;1.20;;;1.10;;
39256;SDS011;24958;48.066;11.038;2022-09-13T13:07:50;1.58;;;1.05;;
39256;SDS011;24958;48.066;11.038;2022-09-13T13:10:23;1.58;;;1.23;;
39256;SDS011;24958;48.066;11.038;2022-09-13T13:12:51;1.40;;;1.00;;
39256;SDS011;24958;48.066;11.038;2022-09-13T13:25:54;1.35;;;0.95;;
39256;SDS011;24958;48.066;11.038;2022-09-13T13:28:47;1.60;;;1.23;;
39256;SDS011;24958;48.066;11.038;2022-09-13T13:31:32;1.35;;;0.80;;
39256;SDS011;24958;48.066;11.038;2022-09-13T13:57:56;1.00;;;0.90;;
39256;SDS011;24958;48.066;11.038;2022-09-13T13:59:54;1.75;;;0.98;;
39256;SDS011;24958;48.066;11.038;2022-09-13T14:02:22;1.20;;;1.10;;
39256;SDS011;24958;48.066;11.038;2022-09-13T14:10:32;1.20;;;1.10;;
39256;SDS011;24958;48.066;11.038;2022-09-13T14:15:38;3.47;;;1.20;;
39256;SDS011;24958;48.066;11.038;2022-09-13T14:18:28;1.92;;;1.08;;
39256;SDS011;24958;48.066;11.038;2022-09-13T14:20:58;1.63;;;1.27;;
39256;SDS011;24958;48.066;11.038;2022-09-13T14:23:24;1.27;;;1.13;;
39256;SDS011;24958;48.066;11.038;2022-09-13T14:25:55;1.23;;;1.10;;
39256;SDS011;24958;48.066;11.038;2022-09-13T14:28:22;1.10;;;1.00;;
39256;SDS011;24958;48.066;11.038;2022-09-13T14:30:51;2.72;;;1.00;;
39256;SDS011;24958;48.066;11.038;2022-09-13T14:33:28;1.40;;;1.10;;
39256;SDS011;24958;48.066;11.038;2022-09-13T14:36:15;2.45;;;1.02;;
39256;SDS011;24958;48.066;11.038;2022-09-13T14:38:46;1.35;;;0.95;;
39256;SDS011;24958;48.066;11.038;2022-09-13T14:41:13;1.55;;;1.00;;
39256;SDS011;24958;48.066;11.038;2022-09-13T14:43:40;1.67;;;0.80;;
39256;SDS011;24958;48.066;11.038;2022-09-13T14:46:08;3.42;;;1.10;;
39256;SDS011;24958;48.066;11.038;2022-09-13T14:48:38;1.88;;;1.02;;
39256;SDS011;24958;48.066;11.038;2022-09-13T14:51:12;1.45;;;1.10;;
39256;SDS011;24958;48.066;11.038;2022-09-13T14:53:39;1.45;;;1.00;;
39256;SDS011;24958;48.066;11.038;2022-09-13T14:56:10;0.90;;;0.80;;
39256;SDS011;24958;48.066;11.038;2022-09-13T14:58:41;1.10;;;1.00;;
39256;SDS011;24958;48.066;11.038;2022-09-13T15:01:10;3.13;;;1.00;;
39256;SDS011;24958;48.066;11.038;2022-09-13T15:03:41;1.08;;;1.00;;
39256;SDS011;24958;48.066;11.038;2022-09-13T15:06:17;0.93;;;0.85;;
39256;SDS011;24958;48.066;11.038;2022-09-13T15:08:45;1.45;;;1.00;;
39256;SDS011;24958;48.066;11.038;2022-09-13T15:11:29;1.13;;;1.02;;
39256;SDS011;24958;48.066;11.038;2022-09-13T15:13:59;1.02;;;1.00;;
39256;SDS011;24958;48.066;11.038;2022-09-13T15:16:30;2.47;;;1.25;;
39256;SDS011;24958;48.066;11.038;2022-09-13T15:21:40;1.77;;;1.20;;
39256;SDS011;24958;48.066;11.038;2022-09-13T15:24:20;1.05;;;1.00;;
39256;SDS011;24958;48.066;11.038;2022-09-13T15:26:46;2.00;;;1.20;;
39256;SDS011;24958;48.066;11.038;2022-09-13T15:29:16;1.90;;;1.80;;
39256;SDS011;24958;48.066;11.038;2022-09-13T15:31:43;1.30;;;1.20;;
39256;SDS011;24958;48.066;11.038;2022-09-13T15:36:41;1.65;;;1.25;;
39256;SDS011;24958;48.066;11.038;2022-09-13T15:44:00;1.42;;;0.95;;
39256;SDS011;24958;48.066;11.038;2022-09-13T15:46:27;3.85;;;1.50;;
39256;SDS011;24958;48.066;11.038;2022-09-13T15:48:54;2.38;;;1.10;;
39256;SDS011;24958;48.066;11.038;2022-09-13T15:51:20;1.40;;;1.30;;
39256;SDS011;24958;48.066;11.038;2022-09-13T15:53:47;2.00;;;1.20;;
39256;SDS011;24958;48.066;11.038;2022-09-13T15:56:34;1.20;;;1.10;;
39256;SDS011;24958;48.066;11.038;2022-09-13T15:59:01;1.30;;;1.20;;
39256;SDS011;24958;48.066;11.038;2022-09-13T16:01:27;1.75;;;1.38;;
39256;SDS011;24958;48.066;11.038;2022-09-13T16:03:53;2.45;;;1.38;;
39256;SDS011;24958;48.066;11.038;2022-09-13T16:06:19;2.47;;;1.98;;
39256;SDS011;24958;48.066;11.038;2022-09-13T16:08:45;1.50;;;1.40;;
39256;SDS011;24958;48.066;11.038;2022-09-13T16:11:11;1.70;;;1.60;;
39256;SDS011;24958;48.066;11.038;2022-09-13T16:13:37;1.55;;;1.45;;
39256;SDS011;24958;48.066;11.038;2022-09-13T16:16:03;2.30;;;1.60;;
39256;SDS011;24958;48.066;11.038;2022-09-13T16:18:29;1.75;;;1.17;;
39256;SDS011;24958;48.066;11.038;2022-09-13T16:20:55;1.77;;;1.67;;
39256;SDS011;24958;48.066;11.038;2022-09-13T16:23:21;2.70;;;1.40;;
39256;SDS011;24958;48.066;11.038;2022-09-13T16:25:49;2.03;;;1.42;;
39256;SDS011;24958;48.066;11.038;2022-09-13T16:28:18;1.30;;;1.20;;
39256;SDS011;24958;48.066;11.038;2022-09-13T16:30:45;1.67;;;1.40;;
39256;SDS011;24958;48.066;11.038;2022-09-13T16:33:11;1.65;;;1.25;;
39256;SDS011;24958;48.066;11.038;2022-09-13T16:35:37;2.58;;;1.45;;
39256;SDS011;24958;48.066;11.038;2022-09-13T16:38:03;2.38;;;1.33;;
39256;SDS011;24958;48.066;11.038;2022-09-13T16:40:29;2.08;;;1.30;;
39256;SDS011;24958;48.066;11.038;2022-09-13T16:42:55;1.20;;;1.10;;
39256;SDS011;24958;48.066;11.038;2022-09-13T16:45:21;1.80;;;1.20;;
39256;SDS011;24958;48.066;11.038;2022-09-13T16:47:47;3.72;;;1.50;;
39256;SDS011;24958;48.066;11.038;2022-09-13T16:50:13;1.63;;;1.52;;
39256;SDS011;24958;48.066;11.038;2022-09-13T16:52:39;1.50;;;1.40;;
39256;SDS011;24958;48.066;11.038;2022-09-13T16:55:06;2.75;;;1.60;;
39256;SDS011;24958;48.066;11.038;2022-09-13T16:57:32;1.30;;;1.20;;
39256;SDS011;24958;48.066;11.038;2022-09-13T16:59:58;1.65;;;1.40;;
39256;SDS011;24958;48.066;11.038;2022-09-13T17:02:25;1.70;;;1.60;;
39256;SDS011;24958;48.066;11.038;2022-09-13T17:04:51;1.73;;;1.58;;
39256;SDS011;24958;48.066;11.038;2022-09-13T17:07:17;2.13;;;1.50;;
39256;SDS011;24958;48.066;11.038;2022-09-13T17:09:43;2.35;;;1.48;;
39256;SDS011;24958;48.066;11.038;2022-09-13T17:12:11;2.42;;;1.27;;
39256;SDS011;24958;48.066;11.038;2022-09-13T17:14:38;1.60;;;1.50;;
39256;SDS011;24958;48.066;11.038;2022-09-13T17:17:06;1.50;;;1.40;;
39256;SDS011;24958;48.066;11.038;2022-09-13T17:19:33;1.55;;;1.45;;
39256;SDS011;24958;48.066;11.038;2022-09-13T17:21:59;3.90;;;1.48;;
39256;SDS011;24958;48.066;11.038;2022-09-13T17:24:26;1.60;;;1.50;;
39256;SDS011;24958;48.066;11.038;2022-09-13T17:26:53;1.60;;;1.50;;
39256;SDS011;24958;48.066;11.038;2022-09-13T17:29:20;2.50;;;1.67;;
39256;SDS011;24958;48.066;11.038;2022-09-13T17:31:46;2.22;;;1.77;;
39256;SDS011;24958;48.066;11.038;2022-09-13T17:34:12;2.50;;;1.65;;
39256;SDS011;24958;48.066;11.038;2022-09-13T17:36:39;1.95;;;1.80;;
39256;SDS011;24958;48.066;11.038;2022-09-13T17:39:05;3.25;;;1.85;;
39256;SDS011;24958;48.066;11.038;2022-09-13T17:41:31;1.88;;;1.77;;
39256;SDS011;24958;48.066;11.038;2022-09-13T17:43:57;2.03;;;1.90;;
39256;SDS011;24958;48.066;11.038;2022-09-13T17:46:24;2.10;;;1.88;;
39256;SDS011;24958;48.066;11.038;2022-09-13T17:48:52;2.25;;;1.70;;
39256;SDS011;24958;48.066;11.038;2022-09-13T17:51:22;1.73;;;1.63;;
39256;SDS011;24958;48.066;11.038;2022-09-13T17:53:49;1.60;;;1.50;;
39256;SDS011;24958;48.066;11.038;2022-09-13T17:56:19;1.80;;;1.70;;
39256;SDS011;24958;48.066;11.038;2022-09-13T17:58:46;4.97;;;1.60;;
39256;SDS011;24958;48.066;11.038;2022-09-13T18:01:12;2.15;;;1.67;;
39256;SDS011;24958;48.066;11.038;2022-09-13T18:03:38;1.90;;;1.75;;